KBTV/BTV METAR and TAF weather

Enter ICAO airport designator
Station Type Date Time Source
KBTV METAR 2018/12/12 22:54 UTC NOAA

KBTV 122254Z 02005KT 10SM CLR M12/M17 A3028 RMK AO2 SLP262 T11221172


Station Type Date Time Source
KBTV Decoded METAR 2018/12/12 22:54 UTC NOAA

BURLINGTON INTERNATIONAL, VT, United States (KBTV) 44-28N 73-09W 105M
Dec 12, 2018 - 05:54 PM EST / 2018.12.12 2254 UTC
Wind: from the NNE (020 degrees) at 6 MPH (5 KT):0
Visibility: 10 mile(s):0
Sky conditions: clear
Temperature: 10.0 F (-12.2 C)
Windchill: 0 F (-18 C):1
Dew Point: 1.0 F (-17.2 C)
Relative Humidity: 66%
Pressure (altimeter): 30.28 in. Hg (1025 hPa)
ob: KBTV 122254Z 02005KT 10SM CLR M12/M17 A3028 RMK AO2 SLP262 T11221172
cycle: 23

Station Type Date Time Source
KBTV TAF 2018/12/12 18:27 UTC NOAA

TAF KBTV 121725Z 1218/1318 02007KT P6SM BKN035
FM130000 06005KT P6SM SKC
FM131500 14005KT P6SM SKC


Example: see airport list